Unicom:                    122.8

AWOS:                  118.275

Elevation           1458’ MSL

TPA:                   2500’ MSL

06/24:         5003’ L   75’ W

PAPI:       06/Left     24/Left

(Operate lights on unicom freq.)

Traffic Pattern: Left

Beacon: Sunset to Sunrise

Windsock: yes, lighted

Segmented Circle: No

 

Cleveland Center: 126.72/291.65

FSS: Altoona

[Source: ADDS]
METAR
KFKL 011556Z AUTO 26010G16KT 10SM SCT032 SCT041 BKN048 23/16 A2989 RMK AO2 LTG DSNT NW SLP115 T02280156 =
KFKL 011120Z 0112/0212 00000KT P6SM SKC FM011500 24005KT P6SM BKN040 TEMPO 0119/0123 3SM -TSRA BKN025CB FM012300 31006KT P6SM SKC FM020900 VRB03KT P6SM OVC005
TAF
KFKL 011120Z 0112/0212 00000KT P6SM SKC FM011500 24005KT P6SM BKN040 TEMPO 0119/0123 3SM -TSRA BKN025CB FM012300 31006KT P6SM SKC FM020900 VRB03KT P6SM OVC005 =
[Source: ADDS]
METAR
KDUJ 011553Z AUTO VRB04KT 10SM FEW028 SCT034 BKN050 22/15 A2989 RMK AO2 SLP110 T02220150 =
KDUJ 011120Z 0112/0212 18004KT P6SM BKN035 TEMPO 0121/0124 2SM -TSRA BKN025CB FM020100 29008KT P6SM SKC FM020900 VRB03KT P6SM OVC006
TAF
KDUJ 011120Z 0112/0212 18004KT P6SM BKN035 TEMPO 0121/0124 2SM -TSRA BKN025CB FM020100 29008KT P6SM SKC FM020900 VRB03KT P6SM OVC006 =

UAV Drone Information. 

Drone Information

 

https://faadronezone.faa.gov/

 

The FAA before you fly Smart Phone App.  https://www.faa.gov/uas/where_to_fly/b4ufly/

The FAA Drone/UAV page.   https://www.faa.gov/uas/

 

How do I get a Remote Pilot Operators Certificate?  https://www.faa.gov/uas/getting_started/fly_for_work_business/becoming_a_pilot/

 

Drone Law Enforcement Checklist.  https://www.faa.gov/uas/resources/law_enforcement/media/FAA-UAS-DRONE-LE-ReferenceCard.pdf

 

UAS Waiver for Flights neart Airports.  https://www.faa.gov/uas/request_waiver/

 

Sportys UAS Ground School Course.  http://www.sportys.com/pilotshop/uas-ground-school-course.html